Time;durP1;ratioP1;P1;durP2;ratioP2;P2;SDS_P1;SDS_P2;PMS_P1;PMS_P2;Temp;Humidity;BMP_temperature;BMP_pressure;BME280_temperature;BME280_humidity;BME280_pressure;Samples;Min_cycle;Max_cycle;Signal;HPM_P1;HPM_P2
2022/10/04 05:05:48;;;;;;;22.58;10.93;;;;;;;11.12;96.89;102085.63;5041848;28;20106;-73
2022/10/04 05:08:26;;;;;;;17.13;11.15;;;;;;;11.12;97.13;102090.44;5046707;28;20032;-72
2022/10/04 05:11:07;;;;;;;21.48;11.15;;;;;;;11.07;97.66;102088.69;5036626;28;20033;-73
2022/10/04 05:13:51;;;;;;;17.98;11.55;;;;;;;11.08;96.95;102097.91;5077504;22;20056;-73
2022/10/04 05:16:25;;;;;;;20.00;11.65;;;;;;;11.02;97.46;102096.50;5044789;28;20111;-72
2022/10/04 05:19:00;;;;;;;19.38;11.63;;;;;;;10.89;99.26;102087.28;5025382;28;20036;-71
2022/10/04 05:21:28;;;;;;;21.25;12.82;;;;;;;10.70;100.00;102090.69;5046659;28;20025;-72
2022/10/04 05:24:08;;;;;;;22.25;12.30;;;;;;;10.84;100.00;102085.56;5026529;28;20055;-72
2022/10/04 05:26:33;;;;;;;26.40;13.45;;;;;;;10.80;100.00;102078.22;5045337;28;20028;-72
2022/10/04 05:29:06;;;;;;;17.15;11.45;;;;;;;10.66;100.00;102081.34;5045442;28;20026;-74
2022/10/04 05:31:45;;;;;;;24.38;13.25;;;;;;;10.61;100.00;102082.41;5040969;28;20021;-75
2022/10/04 05:34:22;;;;;;;17.35;11.23;;;;;;;10.67;100.00;102074.59;5024765;28;20056;-71
2022/10/04 05:37:18;;;;;;;29.75;14.02;;;;;;;10.74;100.00;102070.03;5039686;28;20484;-74
2022/10/04 05:40:22;;;;;;;25.33;13.60;;;;;;;10.46;100.00;102075.50;5034109;28;20377;-72
2022/10/04 05:42:48;;;;;;;29.85;14.40;;;;;;;10.37;100.00;102067.22;5047645;28;20027;-73
2022/10/04 05:45:23;;;;;;;23.38;13.05;;;;;;;10.31;100.00;102079.78;5030560;28;20041;-76
2022/10/04 05:47:52;;;;;;;24.52;13.10;;;;;;;10.28;100.00;102079.63;5024693;28;20476;-72
2022/10/04 05:50:32;;;;;;;25.45;13.60;;;;;;;10.50;100.00;102072.81;5030070;28;20025;-74
2022/10/04 05:53:31;;;;;;;21.45;13.45;;;;;;;10.53;100.00;102072.13;5047138;28;20064;-72
2022/10/04 05:56:20;;;;;;;24.70;13.15;;;;;;;10.54;100.00;102074.56;5043082;28;20435;-72
2022/10/04 05:59:17;;;;;;;21.58;13.00;;;;;;;10.56;100.00;102075.03;5045964;28;20027;-72
2022/10/04 06:02:16;;;;;;;23.70;14.60;;;;;;;10.68;100.00;102065.81;5033627;28;20041;-75
2022/10/04 06:05:03;;;;;;;28.30;13.95;;;;;;;10.55;100.00;102072.59;5029664;28;20032;-76
2022/10/04 06:07:46;;;;;;;21.67;14.63;;;;;;;10.29;100.00;102070.94;5036401;28;20060;-73
2022/10/04 06:10:42;;;;;;;25.67;14.88;;;;;;;10.32;100.00;102073.00;5023338;28;20377;-74
2022/10/04 06:13:30;;;;;;;24.63;14.63;;;;;;;10.42;100.00;102088.56;5032936;28;20037;-73
2022/10/04 06:16:08;;;;;;;33.22;13.05;;;;;;;11.29;100.00;102083.75;5027538;28;21591;-73
2022/10/04 06:19:00;;;;;;;25.02;15.48;;;;;;;10.73;100.00;102079.59;5030429;28;20028;-75
2022/10/04 06:21:33;;;;;;;26.60;13.82;;;;;;;10.61;100.00;102075.97;4994597;28;20050;-73
2022/10/04 06:24:09;;;;;;;23.67;14.13;;;;;;;10.69;100.00;102067.47;5012066;28;20039;-75
2022/10/04 06:26:47;;;;;;;26.15;14.02;;;;;;;10.78;100.00;102082.16;5016745;28;20468;-76
2022/10/04 06:29:21;;;;;;;22.08;13.75;;;;;;;10.68;100.00;102079.81;5035630;28;20056;-73
2022/10/04 06:31:58;;;;;;;26.20;15.55;;;;;;;10.73;100.00;102073.16;5034514;28;20492;-73
2022/10/04 06:35:03;;;;;;;25.70;15.20;;;;;;;10.76;100.00;102073.28;5034738;28;20078;-75
2022/10/04 06:37:57;;;;;;;28.20;16.90;;;;;;;10.58;100.00;102066.28;5004904;28;20392;-74
2022/10/04 06:40:35;;;;;;;27.55;16.08;;;;;;;10.75;100.00;102060.47;5031156;28;20577;-72
2022/10/04 06:43:12;;;;;;;29.63;16.95;;;;;;;10.72;100.00;102055.56;5029480;28;20215;-72
2022/10/04 06:45:59;;;;;;;21.80;14.15;;;;;;;10.73;100.00;102051.59;5037352;28;20036;-75
2022/10/04 06:48:43;;;;;;;29.33;16.02;;;;;;;10.66;100.00;102048.56;5017066;28;20076;-73
2022/10/04 06:51:20;;;;;;;28.52;15.50;;;;;;;10.57;100.00;102047.84;5028407;28;20040;-72
2022/10/04 06:53:46;;;;;;;22.48;14.85;;;;;;;10.64;100.00;102045.28;5032709;28;20471;-72
2022/10/04 06:56:54;;;;;;;27.05;16.38;;;;;;;10.63;100.00;102051.25;5039772;28;20574;-72
2022/10/04 06:59:45;;;;;;;37.30;17.98;;;;;;;10.73;100.00;102040.41;4997028;28;20037;-73
2022/10/04 07:02:17;;;;;;;24.38;14.57;;;;;;;10.73;100.00;102043.19;5026986;28;20144;-73
2022/10/04 07:04:57;;;;;;;33.17;17.03;;;;;;;10.61;100.00;102045.19;5017289;28;20703;-75
2022/10/04 07:07:36;;;;;;;26.98;15.57;;;;;;;10.71;100.00;102048.34;5031634;28;20759;-73
2022/10/04 07:10:07;;;;;;;30.95;17.80;;;;;;;10.71;100.00;102047.50;5018520;28;20123;-74
2022/10/04 07:12:38;;;;;;;24.92;16.73;;;;;;;10.83;100.00;102055.09;5028801;28;20053;-73
2022/10/04 07:15:13;;;;;;;26.55;17.38;;;;;;;10.81;100.00;102047.03;5008359;28;20041;-73
2022/10/04 07:17:42;;;;;;;29.58;17.35;;;;;;;10.76;100.00;102031.28;5003385;28;20057;-74
2022/10/04 07:20:25;;;;;;;36.33;17.77;;;;;;;10.84;100.00;102040.75;5007906;28;20033;-75
2022/10/04 07:22:57;;;;;;;30.58;17.30;;;;;;;10.88;100.00;102040.84;5013806;28;20124;-75
2022/10/04 07:25:44;;;;;;;25.95;16.98;;;;;;;10.90;100.00;102039.34;5032650;28;20427;-73
2022/10/04 07:31:26;;;;;;;34.90;20.92;;;;;;;10.94;100.00;102050.63;5014376;28;20412;-72
2022/10/04 07:33:59;;;;;;;38.20;19.27;;;;;;;11.02;100.00;102063.69;5009623;28;20025;-74
2022/10/04 07:36:55;;;;;;;30.70;19.42;;;;;;;11.07;100.00;102062.63;5014802;28;20034;-73
2022/10/04 07:39:28;;;;;;;30.95;20.20;;;;;;;11.15;100.00;102073.75;5029111;28;20417;-73
2022/10/04 07:42:21;;;;;;;29.92;19.27;;;;;;;11.21;100.00;102067.88;5010207;28;20025;-75
2022/10/04 07:44:58;;;;;;;33.38;19.17;;;;;;;11.30;100.00;102075.00;5016424;28;20183;-75
2022/10/04 07:47:26;;;;;;;32.92;19.00;;;;;;;11.37;100.00;102069.59;5001492;28;20038;-72
2022/10/04 07:49:53;;;;;;;25.80;15.90;;;;;;;11.47;100.00;102073.91;5018321;28;20025;-74
2022/10/04 07:52:48;;;;;;;27.40;17.30;;;;;;;11.50;100.00;102073.19;5014100;28;20112;-75
2022/10/04 07:55:31;;;;;;;27.55;17.35;;;;;;;11.62;100.00;102068.72;5017623;28;20123;-73
2022/10/04 07:58:06;;;;;;;31.73;19.00;;;;;;;11.83;100.00;102065.69;5012208;28;20503;-74
2022/10/04 08:00:48;;;;;;;29.85;19.20;;;;;;;11.81;100.00;102060.44;5009827;28;20026;-73
2022/10/04 08:03:45;;;;;;;34.88;18.85;;;;;;;11.89;100.00;102059.50;5012863;28;20562;-73
2022/10/04 08:06:20;;;;;;;27.80;18.38;;;;;;;12.03;100.00;102058.25;5018691;28;20055;-73
2022/10/04 08:09:04;;;;;;;30.52;18.35;;;;;;;12.07;99.57;102056.38;5018015;28;20030;-73
2022/10/04 08:11:49;;;;;;;26.65;17.75;;;;;;;12.01;98.55;102058.63;5020565;28;20384;-74
2022/10/04 08:14:27;;;;;;;32.05;17.67;;;;;;;12.07;99.99;102062.78;5037402;28;20065;-72
2022/10/04 08:16:58;;;;;;;30.67;17.50;;;;;;;12.25;99.60;102057.69;5036313;28;20029;-73
2022/10/04 08:19:51;;;;;;;23.00;14.13;;;;;;;12.24;98.33;102061.63;5036781;28;20029;-72
2022/10/04 08:22:57;;;;;;;28.27;16.92;;;;;;;12.25;98.51;102056.84;5040747;28;20043;-73
2022/10/04 08:25:34;;;;;;;25.67;15.52;;;;;;;12.26;97.93;102056.47;5008576;28;20060;-73
2022/10/04 08:31:38;;;;;;;30.25;16.08;;;;;;;12.15;97.26;102050.59;5038265;28;20102;-72
2022/10/04 08:34:17;;;;;;;25.83;14.57;;;;;;;12.25;98.35;102056.84;5014801;28;20067;-72
2022/10/04 08:37:14;;;;;;;30.60;16.60;;;;;;;12.37;97.51;102049.13;5036961;28;20025;-72
2022/10/04 08:39:54;;;;;;;21.92;14.10;;;;;;;12.39;96.87;102043.97;5015579;28;20147;-73
2022/10/04 08:42:51;;;;;;;27.08;14.07;;;;;;;12.60;95.68;102046.50;5037638;28;20525;-73
2022/10/04 08:45:33;;;;;;;29.88;13.70;;;;;;;12.55;95.40;102040.38;5039158;28;20033;-72
2022/10/04 08:48:21;;;;;;;23.20;13.80;;;;;;;12.65;94.88;102048.25;5047780;28;20025;-73
2022/10/04 08:51:11;;;;;;;27.23;14.52;;;;;;;12.68;94.50;102044.72;5043524;28;20025;-73
2022/10/04 08:54:02;;;;;;;27.05;15.63;;;;;;;12.55;95.80;102054.41;5042005;28;20024;-73
2022/10/04 08:57:03;;;;;;;28.42;15.07;;;;;;;12.51;94.73;102047.91;5045051;28;20033;-75
2022/10/04 08:59:56;;;;;;;23.95;14.48;;;;;;;12.55;95.95;102043.19;5044544;28;20112;-72
2022/10/04 09:03:04;;;;;;;28.45;15.57;;;;;;;12.51;94.79;102036.66;5036769;28;20450;-72
2022/10/04 09:05:52;;;;;;;25.67;14.18;;;;;;;12.67;94.46;102039.44;5039410;28;20078;-72
2022/10/04 09:08:58;;;;;;;24.63;15.68;;;;;;;12.72;94.86;102040.00;5029520;28;20045;-72
2022/10/04 09:11:57;;;;;;;27.17;13.18;;;;;;;12.96;94.33;102040.94;5026798;28;20028;-73
2022/10/04 09:14:48;;;;;;;32.22;14.30;;;;;;;13.07;92.47;102042.03;5038026;28;20111;-73
2022/10/04 09:17:21;;;;;;;22.08;12.65;;;;;;;13.16;93.97;102045.44;5039770;28;20606;-71
2022/10/04 09:19:53;;;;;;;31.27;14.02;;;;;;;13.03;93.54;102041.13;5042717;28;20028;-72
2022/10/04 09:22:39;;;;;;;21.23;13.40;;;;;;;12.98;93.60;102035.78;5044153;28;20495;-71
2022/10/04 09:25:21;;;;;;;23.25;14.55;;;;;;;13.20;93.84;102031.47;5039129;28;20368;-72
2022/10/04 09:28:06;;;;;;;22.00;13.75;;;;;;;13.38;92.48;102027.03;5036411;28;20185;-73
2022/10/04 09:31:08;;;;;;;23.85;13.50;;;;;;;13.52;93.10;102032.16;5034990;28;20116;-73
2022/10/04 09:33:36;;;;;;;24.15;12.63;;;;;;;13.42;92.00;102041.19;5036673;28;20021;-74
2022/10/04 09:36:23;;;;;;;20.15;13.00;;;;;;;13.37;90.96;102038.69;5043440;28;20029;-74
2022/10/04 09:38:51;;;;;;;26.13;13.50;;;;;;;13.46;91.28;102033.66;5037070;28;20498;-72
2022/10/04 09:41:53;;;;;;;25.95;13.73;;;;;;;13.48;91.71;102034.09;5041353;28;20047;-72
2022/10/04 09:44:42;;;;;;;27.73;14.15;;;;;;;13.61;91.73;102027.13;5038841;28;20025;-72
2022/10/04 09:47:30;;;;;;;25.70;12.88;;;;;;;13.59;90.82;102026.66;5038693;28;20037;-72
2022/10/04 09:50:46;;;;;;;22.67;13.43;;;;;;;13.60;90.99;102036.75;5030284;28;21255;-72
2022/10/04 09:53:27;;;;;;;20.88;11.73;;;;;;;13.69;89.76;102036.53;5003174;28;20484;-72
2022/10/04 09:56:31;;;;;;;19.75;11.50;;;;;;;13.87;89.80;102030.44;5040340;28;20025;-73
2022/10/04 09:59:42;;;;;;;19.92;12.13;;;;;;;13.87;89.78;102031.25;5014682;28;20040;-76
2022/10/04 10:02:45;;;;;;;17.67;12.02;;;;;;;13.95;89.23;102030.19;5034173;28;20040;-72
2022/10/04 10:05:28;;;;;;;;;;;;;;;13.96;89.00;102019.75;5035405;28;20040;-73
2022/10/04 10:08:12;;;;;;;;;;;;;;;14.24;87.65;102033.53;5021372;28;19982;-72
2022/10/04 10:14:25;;;;;;;29.17;12.43;;;;;;;14.14;88.39;102014.44;5038237;28;20111;-73
2022/10/04 10:17:09;;;;;;;20.05;11.73;;;;;;;14.20;88.37;102010.94;5024149;28;20045;-75
2022/10/04 10:20:00;;;;;;;25.90;12.23;;;;;;;14.07;88.17;102003.06;5023451;28;20472;-74
2022/10/04 10:22:27;;;;;;;20.73;11.60;;;;;;;14.42;87.70;102000.88;5031455;28;20045;-72
2022/10/04 10:24:58;;;;;;;22.60;12.70;;;;;;;14.54;88.05;101987.75;5041532;28;20099;-72
2022/10/04 10:27:59;;;;;;;23.85;12.32;;;;;;;14.94;87.25;101992.00;5039925;28;20068;-72
2022/10/04 10:30:32;;;;;;;27.65;13.30;;;;;;;15.03;86.20;101986.88;5021027;28;20065;-73
2022/10/04 10:33:03;;;;;;;;;;;;;;;15.09;85.41;101990.19;5034615;28;20158;-73
2022/10/04 10:35:43;;;;;;;28.85;12.85;;;;;;;15.05;85.34;101987.31;5041580;28;19919;-72
2022/10/04 10:38:24;;;;;;;24.23;12.10;;;;;;;14.83;85.95;101991.84;5038432;28;20499;-72
2022/10/04 10:41:02;;;;;;;21.08;10.38;;;;;;;15.20;85.08;102002.41;5040434;28;20502;-72
2022/10/04 10:43:42;;;;;;;17.65;10.13;;;;;;;15.03;84.59;102006.63;5024137;28;20040;-72
2022/10/04 10:46:33;;;;;;;26.63;10.32;;;;;;;15.06;83.68;102003.06;5036606;28;20030;-74
2022/10/04 10:49:11;;;;;;;19.63;10.10;;;;;;;15.25;82.48;101988.81;5037845;28;20507;-73
2022/10/04 10:52:25;;;;;;;18.23;9.18;;;;;;;15.54;82.36;101997.63;5039467;28;20127;-74
2022/10/04 10:55:19;;;;;;;18.33;8.50;;;;;;;15.80;82.08;101999.56;5034005;28;22286;-75
2022/10/04 10:57:58;;;;;;;15.68;7.93;;;;;;;16.01;78.75;101989.69;5040450;28;20056;-72
2022/10/04 11:00:34;;;;;;;11.88;6.50;;;;;;;15.90;79.35;101992.41;5021958;28;20041;-72
2022/10/04 11:02:59;;;;;;;15.30;6.47;;;;;;;16.00;76.88;101976.75;5024045;28;20040;-73
2022/10/04 11:06:02;;;;;;;10.10;6.45;;;;;;;16.22;75.13;101978.59;5026347;28;20042;-72
2022/10/04 11:08:30;;;;;;;15.68;6.35;;;;;;;15.98;75.07;101973.50;5040739;28;20491;-73
2022/10/04 11:11:14;;;;;;;12.18;6.55;;;;;;;16.22;75.32;101969.31;5039674;28;20025;-72
2022/10/04 11:13:46;;;;;;;13.23;6.13;;;;;;;16.37;73.83;101976.69;5036008;28;20041;-72
2022/10/04 11:16:56;;;;;;;14.40;6.63;;;;;;;16.19;75.61;101972.91;5041922;28;20037;-72
2022/10/04 11:19:39;;;;;;;8.95;4.45;;;;;;;16.44;71.42;101962.63;5025037;28;20040;-72
2022/10/04 11:22:29;;;;;;;15.20;5.85;;;;;;;16.07;72.94;101976.03;5038306;28;20090;-74
2022/10/04 11:25:12;;;;;;;11.38;6.15;;;;;;;16.45;72.89;101971.91;5010478;28;20041;-72
2022/10/04 11:28:04;;;;;;;18.40;5.97;;;;;;;16.31;72.67;101966.94;5038493;28;20033;-72
2022/10/04 11:31:01;;;;;;;18.88;6.07;;;;;;;16.79;71.27;101963.25;5034601;28;20124;-73
2022/10/04 11:34:11;;;;;;;12.60;4.65;;;;;;;16.82;70.82;101954.84;5039221;28;20048;-72
2022/10/04 11:36:52;;;;;;;11.05;5.20;;;;;;;16.89;68.53;101958.88;5033393;28;20071;-73
2022/10/04 11:39:29;;;;;;;10.30;4.90;;;;;;;16.81;70.34;101949.56;5012385;28;20032;-73
2022/10/04 11:41:59;;;;;;;16.70;5.85;;;;;;;16.80;68.81;101950.72;5037014;28;20030;-74
2022/10/04 11:44:56;;;;;;;8.38;5.30;;;;;;;16.51;71.44;101944.91;5042611;28;20025;-73
2022/10/04 11:47:27;;;;;;;8.77;5.45;;;;;;;16.70;69.13;101940.16;5020142;28;20052;-74
2022/10/04 11:50:02;;;;;;;12.32;5.53;;;;;;;16.96;68.31;101933.47;5014583;28;21865;-73
2022/10/04 11:53:04;;;;;;;19.95;5.38;;;;;;;16.92;68.83;101935.47;5021187;28;20037;-74
2022/10/04 11:56:02;;;;;;;13.95;5.40;;;;;;;16.79;71.00;101937.81;5030578;28;20787;-73
2022/10/04 11:58:43;;;;;;;8.50;4.97;;;;;;;17.03;67.80;101936.34;5036669;28;20060;-72
2022/10/04 12:01:39;;;;;;;10.05;4.38;;;;;;;16.76;67.56;101928.09;5035368;28;20063;-74
2022/10/04 12:04:16;;;;;;;15.38;4.63;;;;;;;16.57;67.67;101925.53;5035224;28;20499;-73
2022/10/04 12:07:23;;;;;;;10.65;4.50;;;;;;;17.46;65.97;101926.00;5038070;28;20524;-74
2022/10/04 12:10:18;;;;;;;6.13;3.90;;;;;;;17.30;66.69;101922.69;5040296;28;20035;-75
2022/10/04 12:12:58;;;;;;;12.55;4.72;;;;;;;17.19;67.89;101922.66;5039549;28;20110;-73
2022/10/04 12:15:50;;;;;;;9.35;3.65;;;;;;;17.18;62.83;101921.06;5034178;28;20045;-73
2022/10/04 12:18:47;;;;;;;11.95;4.05;;;;;;;17.32;62.44;101914.63;5022398;28;20059;-73
2022/10/04 12:21:44;;;;;;;10.50;3.80;;;;;;;17.32;62.18;101908.97;5037229;28;20337;-74
2022/10/04 12:24:39;;;;;;;7.05;4.22;;;;;;;17.47;63.80;101902.13;5035486;28;20136;-74
2022/10/04 12:27:14;;;;;;;8.38;4.30;;;;;;;17.23;65.49;101895.19;5039348;28;20025;-74
2022/10/04 12:30:19;;;;;;;11.10;4.18;;;;;;;17.16;63.54;101900.00;5038328;28;20029;-72
2022/10/04 12:33:02;;;;;;;7.60;4.05;;;;;;;16.97;64.32;101887.84;5041199;28;20029;-75
2022/10/04 12:35:42;;;;;;;7.80;3.53;;;;;;;17.15;62.41;101889.91;5033299;28;20051;-74
2022/10/04 12:38:20;;;;;;;7.45;4.07;;;;;;;17.52;63.16;101888.78;5039098;28;20493;-74
2022/10/04 12:40:54;;;;;;;8.45;4.50;;;;;;;17.14;65.33;101880.63;5028554;28;20036;-73
2022/10/04 12:43:31;;;;;;;7.75;4.30;;;;;;;16.57;65.55;101885.97;5036478;28;20510;-74
2022/10/04 12:46:16;;;;;;;10.93;3.78;;;;;;;16.55;62.58;101879.91;5041823;28;20033;-73
2022/10/04 12:49:24;;;;;;;6.07;3.72;;;;;;;16.57;66.47;101871.84;5025295;28;20480;-74
2022/10/04 12:52:11;;;;;;;9.73;4.13;;;;;;;16.50;66.41;101880.28;5037312;28;20025;-73
2022/10/04 12:54:49;;;;;;;6.15;3.40;;;;;;;16.50;66.38;101869.78;5036593;28;20037;-73
2022/10/04 12:57:52;;;;;;;7.43;3.30;;;;;;;16.61;66.49;101862.19;5033924;28;20484;-73
2022/10/04 13:00:28;;;;;;;8.57;3.55;;;;;;;16.73;63.12;101852.56;5016958;28;20044;-74
2022/10/04 13:03:28;;;;;;;7.63;3.03;;;;;;;16.89;63.41;101863.56;5029950;28;20082;-74
2022/10/04 13:06:08;;;;;;;4.50;3.05;;;;;;;16.96;64.31;101862.78;5035595;28;20021;-73
2022/10/04 13:08:36;;;;;;;9.77;3.83;;;;;;;17.04;67.69;101864.44;5041120;28;20059;-73
2022/10/04 13:11:26;;;;;;;8.55;3.38;;;;;;;17.16;63.11;101861.25;5033096;28;20170;-74
2022/10/04 13:14:22;;;;;;;9.88;4.00;;;;;;;16.95;62.26;101861.97;5035449;28;20042;-73
2022/10/04 13:16:57;;;;;;;7.53;3.50;;;;;;;17.25;61.14;101864.50;5033929;28;20027;-73
2022/10/04 13:19:33;;;;;;;7.32;3.28;;;;;;;17.28;62.55;101852.34;5034310;28;20025;-77
2022/10/04 13:21:58;;;;;;;6.70;3.63;;;;;;;17.50;60.07;101855.25;5036157;28;20151;-74
2022/10/04 13:24:55;;;;;;;7.38;3.83;;;;;;;17.37;60.35;101845.50;5020895;28;20042;-72
2022/10/04 13:27:29;;;;;;;8.07;3.42;;;;;;;17.35;62.12;101842.25;5025243;28;20033;-73
2022/10/04 13:30:15;;;;;;;7.28;2.90;;;;;;;17.18;61.66;101832.53;5030005;28;20040;-75
2022/10/04 13:32:51;;;;;;;7.15;3.13;;;;;;;17.38;63.71;101833.00;5033778;28;20049;-73
2022/10/04 13:35:24;;;;;;;6.07;3.45;;;;;;;17.45;61.65;101841.47;5039440;28;20535;-73
2022/10/04 13:38:26;;;;;;;5.45;3.20;;;;;;;17.30;62.42;101831.34;5040853;28;20056;-73
2022/10/04 13:41:49;;;;;;;9.90;3.78;;;;;;;17.31;60.80;101827.28;5041240;28;20116;-73
2022/10/04 13:44:28;;;;;;;6.60;3.13;;;;;;;17.01;58.69;101823.63;4957690;28;20486;-72
2022/10/04 13:47:03;;;;;;;5.45;2.60;;;;;;;17.10;58.16;101811.91;4959705;28;20092;-73
2022/10/04 13:49:41;;;;;;;6.00;2.75;;;;;;;16.92;61.00;101816.72;5014095;28;20052;-75
2022/10/04 13:58:26;;;;;;;5.82;2.70;;;;;;;16.96;60.75;101803.41;5038175;28;20028;-73
2022/10/04 14:01:24;;;;;;;8.05;3.83;;;;;;;17.00;59.90;101795.72;5040423;28;20028;-73
2022/10/04 14:04:20;;;;;;;10.23;3.30;;;;;;;16.89;60.90;101798.53;4998861;28;20049;-73
2022/10/04 14:06:51;;;;;;;9.40;3.95;;;;;;;16.90;66.91;101796.50;5041149;28;20492;-72
2022/10/04 14:09:29;;;;;;;9.38;3.60;;;;;;;16.88;62.83;101798.91;5012432;28;20036;-76
2022/10/04 14:12:20;;;;;;;6.25;3.55;;;;;;;17.05;62.42;101798.16;5037328;28;20186;-73
2022/10/04 14:15:16;;;;;;;6.10;3.20;;;;;;;17.19;64.09;101781.22;5033415;28;20060;-76
2022/10/04 14:17:53;;;;;;;6.28;3.00;;;;;;;17.30;61.56;101794.56;5031598;28;20658;-73
2022/10/04 14:20:46;;;;;;;6.90;4.00;;;;;;;17.30;60.26;101797.41;5023734;28;20029;-73
2022/10/04 14:23:43;;;;;;;7.68;2.95;;;;;;;17.35;59.44;101789.31;5044886;28;20033;-74
2022/10/04 14:26:36;;;;;;;5.15;3.05;;;;;;;17.30;61.56;101791.75;5036804;28;20045;-72
2022/10/04 14:29:01;;;;;;;;;;;;;;;17.22;60.15;101786.09;5042127;28;20025;-71
2022/10/04 14:31:48;;;;;;;12.70;3.88;;;;;;;17.18;63.10;101790.91;5021098;28;19924;-72
2022/10/04 14:34:29;;;;;;;10.23;3.67;;;;;;;17.11;62.70;101802.22;5040113;28;20460;-72
2022/10/04 14:37:33;;;;;;;7.00;3.10;;;;;;;17.06;61.80;101802.63;5037080;28;20061;-72
2022/10/04 14:40:33;;;;;;;5.80;3.20;;;;;;;16.96;63.55;101789.25;5030287;28;21315;-74
2022/10/04 14:43:51;;;;;;;7.40;3.78;;;;;;;17.04;64.46;101802.19;5026394;28;20413;-72
2022/10/04 14:46:16;;;;;;;6.32;3.30;;;;;;;17.01;65.98;101800.16;5029105;28;20045;-72
2022/10/04 14:48:51;;;;;;;6.32;3.80;;;;;;;17.00;65.04;101802.19;5033098;28;20033;-72
2022/10/04 14:51:34;;;;;;;8.77;3.55;;;;;;;17.05;65.05;101798.97;5040207;28;20029;-72
2022/10/04 14:54:27;;;;;;;8.90;3.53;;;;;;;17.12;64.98;101792.53;5033931;28;20124;-72
2022/10/04 14:57:18;;;;;;;;;;;;;;;17.00;64.99;101795.72;5026189;28;20040;-72
2022/10/04 15:00:15;;;;;;;9.88;3.83;;;;;;;16.91;65.75;101786.78;5037387;28;20425;-74
2022/10/04 15:02:57;;;;;;;5.60;3.90;;;;;;;16.82;66.04;101796.50;5036639;28;20037;-72
2022/10/04 15:05:43;;;;;;;14.27;4.80;;;;;;;16.71;66.76;101801.25;5035781;28;20036;-72
2022/10/04 15:08:08;;;;;;;6.45;4.03;;;;;;;16.69;68.15;101802.88;5030512;28;20697;-75
2022/10/04 15:10:44;;;;;;;8.20;3.78;;;;;;;16.66;65.87;101793.97;5037588;28;20028;-71
2022/10/04 15:13:54;;;;;;;6.03;3.90;;;;;;;16.59;67.92;101799.59;5037516;28;20140;-73
2022/10/04 15:16:45;;;;;;;36.00;6.22;;;;;;;16.75;67.41;101801.28;5039944;28;20289;-72
2022/10/04 15:19:20;;;;;;;13.82;4.00;;;;;;;16.51;68.42;101803.59;5035367;28;20040;-72
2022/10/04 15:21:58;;;;;;;8.35;4.10;;;;;;;16.52;68.82;101798.75;5039779;28;20039;-73
2022/10/04 15:24:46;;;;;;;9.65;4.30;;;;;;;16.36;70.57;101799.91;5006374;28;20395;-74
2022/10/04 15:27:21;;;;;;;13.88;4.15;;;;;;;16.33;69.71;101797.84;5030186;28;20476;-73
2022/10/04 15:29:56;;;;;;;8.00;3.88;;;;;;;16.37;68.14;101797.88;5032813;28;20077;-76
2022/10/04 15:32:49;;;;;;;6.20;3.53;;;;;;;16.57;66.27;101801.19;5032168;28;20490;-73
2022/10/04 15:35:37;;;;;;;7.70;3.55;;;;;;;16.60;66.32;101791.94;5021223;28;20467;-73
2022/10/04 15:38:35;;;;;;;12.90;4.55;;;;;;;16.71;67.43;101797.63;5032149;28;20036;-72
2022/10/04 15:41:30;;;;;;;9.30;3.50;;;;;;;16.78;65.91;101794.81;5039002;28;20516;-72
2022/10/04 15:44:12;;;;;;;8.88;4.07;;;;;;;16.77;67.08;101796.03;5038163;28;20472;-74
2022/10/04 15:47:07;;;;;;;9.07;3.70;;;;;;;16.72;66.55;101800.06;5032338;28;20032;-73
2022/10/04 15:49:58;;;;;;;7.65;3.65;;;;;;;16.70;66.80;101804.47;5039773;28;20531;-72
2022/10/04 15:52:52;;;;;;;10.25;3.60;;;;;;;16.63;67.79;101793.94;5038568;28;20021;-72
2022/10/04 15:55:29;;;;;;;8.52;3.40;;;;;;;16.55;70.75;101786.63;5040834;28;20392;-73
2022/10/04 15:58:16;;;;;;;9.40;4.10;;;;;;;16.42;71.86;101794.66;5013011;28;20167;-74
2022/10/04 16:00:55;;;;;;;7.15;4.18;;;;;;;16.31;70.52;101783.31;5038326;28;20032;-75
2022/10/04 16:03:26;;;;;;;10.45;4.30;;;;;;;16.30;69.70;101778.06;5007689;28;20029;-76
2022/10/04 16:06:00;;;;;;;9.00;4.28;;;;;;;16.22;69.50;101774.38;5041036;28;20026;-72
2022/10/04 16:08:46;;;;;;;9.98;4.57;;;;;;;16.19;72.65;101780.81;5037160;28;20021;-72
2022/10/04 16:11:45;;;;;;;7.72;3.28;;;;;;;16.09;71.78;101776.75;5040523;28;20029;-73
2022/10/04 16:14:28;;;;;;;11.77;4.25;;;;;;;16.00;72.36;101762.97;4980332;28;20048;-73
2022/10/04 16:17:04;;;;;;;6.78;3.90;;;;;;;15.98;71.15;101764.56;5038493;28;20110;-73
2022/10/04 16:19:38;;;;;;;10.20;3.83;;;;;;;15.97;71.74;101782.72;5038576;28;20035;-75
2022/10/04 16:22:13;;;;;;;6.45;3.58;;;;;;;15.92;74.40;101789.53;5042227;28;20102;-72
2022/10/04 16:24:53;;;;;;;6.75;3.85;;;;;;;15.91;72.48;101785.09;5031019;28;20084;-72
2022/10/04 16:27:36;;;;;;;8.55;4.85;;;;;;;16.08;76.80;101780.75;5032640;28;20036;-73
2022/10/04 16:30:11;;;;;;;7.82;4.57;;;;;;;15.96;72.66;101779.09;5023053;28;20025;-72
2022/10/04 16:32:55;;;;;;;7.32;4.57;;;;;;;15.89;75.39;101781.84;5031742;28;20032;-72
2022/10/04 16:35:30;;;;;;;9.18;4.00;;;;;;;15.79;76.15;101776.94;5045171;28;20087;-74
2022/10/04 16:38:06;;;;;;;7.57;4.40;;;;;;;15.65;74.46;101781.25;5042496;28;20021;-73
2022/10/04 16:40:45;;;;;;;10.05;5.10;;;;;;;15.61;74.69;101788.88;5040545;28;20029;-73
2022/10/04 16:43:17;;;;;;;7.72;4.43;;;;;;;15.59;77.82;101794.09;5025805;28;20029;-73
2022/10/04 16:46:08;;;;;;;12.23;5.03;;;;;;;15.54;77.14;101786.00;5029212;28;20060;-73
2022/10/04 16:48:39;;;;;;;10.48;5.07;;;;;;;15.50;77.01;101795.63;5037584;28;20020;-72
2022/10/04 16:51:16;;;;;;;9.88;4.88;;;;;;;15.44;77.72;101793.16;5041799;28;20025;-73
2022/10/04 16:54:25;;;;;;;10.90;4.95;;;;;;;15.40;77.46;101786.66;5042337;28;20025;-74
2022/10/04 16:56:50;;;;;;;15.27;5.93;;;;;;;15.36;79.53;101780.19;5030306;28;20034;-77
2022/10/04 16:59:35;;;;;;;10.57;6.10;;;;;;;15.38;79.09;101794.72;5045221;28;20017;-72
2022/10/04 17:02:35;;;;;;;12.52;7.07;;;;;;;15.38;79.06;101785.44;5035556;28;21169;-73
2022/10/04 17:05:26;;;;;;;16.83;7.22;;;;;;;15.37;79.33;101797.94;5036594;28;20086;-72
2022/10/04 17:08:10;;;;;;;9.55;6.20;;;;;;;15.39;80.49;101795.50;5024291;28;20107;-73
2022/10/04 17:10:47;;;;;;;12.07;5.95;;;;;;;15.36;78.05;101794.28;5035688;28;20033;-72
2022/10/04 17:13:34;;;;;;;11.02;6.28;;;;;;;15.48;80.54;101789.56;5044034;28;20416;-72
2022/10/04 17:16:04;;;;;;;16.55;7.88;;;;;;;15.35;78.07;101794.69;5040167;28;20045;-71
2022/10/04 17:19:01;;;;;;;11.18;7.28;;;;;;;15.40;77.50;101794.34;5026539;28;20432;-73
2022/10/04 17:21:45;;;;;;;8.38;5.65;;;;;;;15.34;79.04;101799.50;5039191;28;20033;-74
2022/10/04 17:24:32;;;;;;;10.40;5.85;;;;;;;15.33;79.08;101797.91;5037021;28;20543;-73
2022/10/04 17:27:59;;;;;;;12.07;6.95;;;;;;;15.34;79.91;101785.41;5018974;28;20061;-72
2022/10/04 17:30:41;;;;;;;10.93;6.22;;;;;;;15.28;79.09;101784.13;4968797;28;20042;-72
2022/10/04 17:33:25;;;;;;;11.50;6.88;;;;;;;15.30;79.38;101793.03;4970617;28;20038;-73
2022/10/04 17:36:24;;;;;;;9.63;6.90;;;;;;;15.29;79.17;101784.97;5021121;28;20132;-72
2022/10/04 17:39:09;;;;;;;10.15;5.93;;;;;;;15.30;81.02;101775.28;5022155;28;20098;-72
2022/10/04 17:41:49;;;;;;;10.88;7.20;;;;;;;15.25;79.33;101774.44;5040876;28;20041;-73
2022/10/04 17:44:36;;;;;;;11.40;6.53;;;;;;;15.23;79.41;101776.84;5023982;28;20077;-74
2022/10/04 17:47:21;;;;;;;13.13;7.68;;;;;;;15.26;79.09;101780.91;5043958;28;20420;-74
2022/10/04 17:56:02;;;;;;;10.48;6.18;;;;;;;15.25;78.90;101784.94;5037376;28;20043;-73
2022/10/04 17:58:45;;;;;;;9.20;6.00;;;;;;;15.26;80.19;101789.34;5040375;28;20059;-73
2022/10/04 18:01:34;;;;;;;10.70;6.60;;;;;;;15.20;81.00;101802.19;5037087;28;20037;-73
2022/10/04 18:04:26;;;;;;;10.00;6.13;;;;;;;15.22;80.30;101791.31;5039817;28;20118;-73